WAW weather

Warsaw Chopin Airport
Warsaw, Masovia, Poland

Public forecast

Using degrees Celsius for public forecast. Weather courtesy of forecast.io.

Current aviation weather report (METAR) for Warsaw Chopin Airport

Retrieved 2019/11/21 04:30 UTC (24 minutes ago):

EPWA 210430Z 10018KT 9999 BKN010 09/07 Q1018 NOSIG

Aviation forecast (TAF) for Warsaw Chopin Airport

Retrieved 2019-11-21 03:37 UTC (1 hour ago):

TAF EPWA 210230Z 2103/2203 10014KT 9999 BKN013 TEMPO 2103/2108 11017G27KT BKN009 BECMG 2108/2111 BKN017 TEMPO 2108/2124 11018G32KT RA